createdAt,value
2022-08-18T00:02:29.940Z,15.15
2022-08-18T00:04:58.603Z,15.23
2022-08-18T00:07:31.245Z,12.73
2022-08-18T00:10:00.355Z,12.77
2022-08-18T00:12:35.973Z,14.85
2022-08-18T00:15:05.770Z,12.95
2022-08-18T00:17:34.363Z,12.38
2022-08-18T00:20:07.484Z,13.23
2022-08-18T00:22:35.533Z,12.35
2022-08-18T00:25:03.381Z,12.88
2022-08-18T00:27:32.600Z,13.18
2022-08-18T00:30:03.671Z,12.95
2022-08-18T00:32:36.083Z,15.68
2022-08-18T00:35:26.713Z,13.07
2022-08-18T00:37:59.337Z,13.57
2022-08-18T00:40:39.965Z,13.90
2022-08-18T00:43:13.870Z,12.43
2022-08-18T00:45:43.524Z,14.88
2022-08-18T00:48:13.315Z,13.43
2022-08-18T00:50:56.186Z,15.80
2022-08-18T00:53:41.139Z,16.73
2022-08-18T00:56:20.771Z,13.90
2022-08-18T00:58:56.838Z,13.70
2022-08-18T01:01:28.871Z,13.85
2022-08-18T01:04:06.466Z,17.75
2022-08-18T01:06:59.033Z,14.70
2022-08-18T01:09:26.575Z,13.55
2022-08-18T01:11:54.139Z,13.57
2022-08-18T01:14:21.691Z,13.07
2022-08-18T01:17:09.618Z,13.70
2022-08-18T01:19:55.955Z,14.38
2022-08-18T01:22:47.862Z,14.98
2022-08-18T01:25:36.408Z,12.75
2022-08-18T01:28:05.630Z,13.90
2022-08-18T01:30:46.127Z,12.30
2022-08-18T01:33:13.346Z,12.90
2022-08-18T01:35:43.999Z,13.57
2022-08-18T01:38:13.386Z,16.63
2022-08-18T01:41:24.064Z,13.13
2022-08-18T01:43:28.048Z,13.65
2022-08-18T01:45:57.634Z,13.38
2022-08-18T01:48:24.894Z,14.10
2022-08-18T01:50:54.569Z,14.90
2022-08-18T01:53:21.867Z,14.10
2022-08-18T01:55:49.300Z,15.05
2022-08-18T01:58:17.722Z,14.98
2022-08-18T02:00:45.019Z,13.60
2022-08-18T02:03:15.316Z,17.80
2022-08-18T02:05:49.875Z,15.95
2022-08-18T02:08:17.911Z,13.90
2022-08-18T02:10:45.362Z,13.48
2022-08-18T02:13:13.159Z,14.25
2022-08-18T02:15:42.874Z,14.07
2022-08-18T02:18:30.440Z,12.82
2022-08-18T02:21:18.953Z,13.90
2022-08-18T02:23:53.036Z,12.82
2022-08-18T02:26:22.109Z,16.40
2022-08-18T02:28:50.102Z,12.85
2022-08-18T02:31:24.457Z,13.95
2022-08-18T02:33:52.886Z,13.70
2022-08-18T02:36:23.819Z,13.32
2022-08-18T02:38:54.671Z,14.88
2022-08-18T02:41:29.883Z,15.23
2022-08-18T02:43:58.799Z,13.50
2022-08-18T02:46:30.098Z,14.02
2022-08-18T02:49:00.479Z,15.15
2022-08-18T02:51:28.591Z,14.05
2022-08-18T02:53:59.277Z,14.27
2022-08-18T02:56:41.508Z,15.07
2022-08-18T02:59:24.399Z,15.35
2022-08-18T03:01:55.250Z,14.70
2022-08-18T03:06:52.138Z,14.43
2022-08-18T03:09:19.736Z,15.52
2022-08-18T03:11:48.150Z,13.65
2022-08-18T03:14:16.961Z,13.18
2022-08-18T03:16:53.539Z,14.10
2022-08-18T03:19:28.429Z,15.55
2022-08-18T03:22:02.473Z,14.55
2022-08-18T03:24:32.797Z,14.07
2022-08-18T03:27:04.497Z,15.73
2022-08-18T03:29:32.908Z,14.13
2022-08-18T03:32:03.279Z,18.42
2022-08-18T03:34:31.667Z,14.32
2022-08-18T03:36:59.513Z,15.02
2022-08-18T03:39:28.398Z,14.68
2022-08-18T03:42:01.040Z,13.05
2022-08-18T03:44:37.311Z,14.45
2022-08-18T03:47:09.384Z,15.35
2022-08-18T03:49:38.808Z,13.43
2022-08-18T03:52:10.801Z,14.90
2022-08-18T03:54:39.315Z,20.98
2022-08-18T03:59:56.281Z,14.95
2022-08-18T04:02:23.767Z,14.68
2022-08-18T04:04:51.492Z,15.98
2022-08-18T04:07:19.082Z,14.93
2022-08-18T04:09:47.142Z,18.52
2022-08-18T04:12:17.401Z,13.57
2022-08-18T04:14:49.309Z,14.15
2022-08-18T04:17:24.297Z,18.27
2022-08-18T04:19:56.775Z,15.35
2022-08-18T04:22:25.286Z,14.75
2022-08-18T04:24:53.835Z,14.30
2022-08-18T04:27:22.617Z,14.07
2022-08-18T04:29:50.691Z,14.18
2022-08-18T04:32:19.611Z,14.05
2022-08-18T04:34:52.952Z,14.70
2022-08-18T04:37:21.368Z,15.45
2022-08-18T04:39:49.150Z,14.95
2022-08-18T04:42:16.689Z,15.73
2022-08-18T04:44:44.128Z,15.00
2022-08-18T04:47:13.259Z,14.55
2022-08-18T04:49:40.585Z,16.50
2022-08-18T04:52:41.927Z,15.85
2022-08-18T04:55:10.799Z,15.32
2022-08-18T04:57:38.339Z,14.40
2022-08-18T05:00:12.941Z,15.48
2022-08-18T05:02:40.957Z,20.98
2022-08-18T05:05:08.939Z,17.67
2022-08-18T05:07:36.255Z,17.00
2022-08-18T05:10:03.702Z,16.88
2022-08-18T05:12:31.021Z,16.83
2022-08-18T05:14:58.297Z,16.10
2022-08-18T05:17:30.470Z,15.40
2022-08-18T05:20:01.765Z,15.18
2022-08-18T05:22:30.857Z,16.45
2022-08-18T05:27:45.208Z,17.42
2022-08-18T05:30:15.584Z,17.08
2022-08-18T05:32:47.910Z,16.60
2022-08-18T05:35:26.816Z,16.63
2022-08-18T05:38:31.147Z,17.55
2022-08-18T05:41:14.468Z,17.08
2022-08-18T05:43:52.151Z,17.55
2022-08-18T05:46:24.562Z,18.67
2022-08-18T05:48:51.900Z,22.80
2022-08-18T05:51:45.218Z,19.05
2022-08-18T05:54:32.390Z,16.33
2022-08-18T05:57:17.517Z,24.70
2022-08-18T05:59:47.971Z,19.83
2022-08-18T06:02:18.086Z,19.08
2022-08-18T06:04:53.926Z,18.63
2022-08-18T06:07:36.612Z,18.92
2022-08-18T06:10:07.362Z,21.00
2022-08-18T06:12:41.193Z,18.27
2022-08-18T06:15:39.647Z,16.80
2022-08-18T06:18:22.157Z,16.75
2022-08-18T06:21:38.290Z,18.50
2022-08-18T06:24:44.544Z,19.42
2022-08-18T06:27:40.378Z,18.38
2022-08-18T06:30:22.909Z,19.40
2022-08-18T06:32:59.480Z,19.13
2022-08-18T06:35:39.976Z,18.38
2022-08-18T06:38:53.162Z,18.23
2022-08-18T06:41:49.160Z,19.50
2022-08-18T06:44:30.087Z,18.95
2022-08-18T06:47:19.591Z,21.40
2022-08-18T06:50:35.138Z,18.60
2022-08-18T06:53:07.709Z,19.65
2022-08-18T06:55:55.423Z,18.52
2022-08-18T06:58:30.395Z,18.00
2022-08-18T07:01:05.255Z,22.40
2022-08-18T07:03:35.736Z,20.13
2022-08-18T07:06:11.623Z,19.55
2022-08-18T07:08:46.362Z,19.25
2022-08-18T07:11:22.453Z,19.85
2022-08-18T07:14:09.423Z,18.85
2022-08-18T07:16:57.630Z,17.88
2022-08-18T07:19:31.419Z,22.88
2022-08-18T07:22:12.086Z,18.73
2022-08-18T07:24:48.074Z,22.88
2022-08-18T07:27:19.980Z,20.95
2022-08-18T07:30:15.745Z,22.40
2022-08-18T07:33:01.641Z,20.33
2022-08-18T07:35:49.586Z,23.17
2022-08-18T07:38:42.685Z,24.05
2022-08-18T07:41:37.893Z,19.25
2022-08-18T07:45:00.971Z,23.05
2022-08-18T07:47:54.501Z,21.75
2022-08-18T07:50:55.137Z,19.48
2022-08-18T07:53:24.648Z,17.30
2022-08-18T07:56:05.781Z,20.23
2022-08-18T07:59:00.471Z,17.08
2022-08-18T08:01:59.964Z,18.60
2022-08-18T08:05:26.561Z,17.05
2022-08-18T08:08:00.341Z,16.33
2022-08-18T08:11:06.919Z,23.50
2022-08-18T08:13:57.347Z,18.52
2022-08-18T08:16:46.910Z,17.48
2022-08-18T08:20:08.612Z,19.15
2022-08-18T08:22:53.597Z,19.45
2022-08-18T08:25:46.499Z,22.95
2022-08-18T08:28:29.706Z,26.10
2022-08-18T08:34:36.304Z,20.08
2022-08-18T08:37:09.839Z,16.35
2022-08-18T08:42:30.432Z,17.20
2022-08-18T08:45:09.667Z,18.33
2022-08-18T08:48:14.725Z,21.17
2022-08-18T08:50:58.660Z,18.27
2022-08-18T08:53:39.831Z,13.75
2022-08-18T08:56:17.165Z,25.85
2022-08-18T08:59:13.263Z,18.58
2022-08-18T09:02:06.115Z,22.33
2022-08-18T09:05:33.898Z,18.48
2022-08-18T09:09:02.218Z,13.65
2022-08-18T09:11:49.315Z,13.77
2022-08-18T09:14:46.063Z,15.15
2022-08-18T09:17:43.031Z,15.45
2022-08-18T09:20:35.697Z,15.98
2022-08-18T09:23:41.186Z,13.43
2022-08-18T09:26:41.709Z,15.13
2022-08-18T09:29:23.635Z,12.52
2022-08-18T09:32:22.909Z,12.27
2022-08-18T09:35:34.335Z,15.38
2022-08-18T09:38:33.104Z,16.48
2022-08-18T09:41:31.904Z,14.20
2022-08-18T09:47:00.829Z,12.38
2022-08-18T09:49:29.257Z,12.30
2022-08-18T09:52:02.256Z,11.18
2022-08-18T09:54:33.311Z,8.60
2022-08-18T09:57:21.047Z,11.55
2022-08-18T09:59:49.204Z,10.95
2022-08-18T10:02:29.856Z,12.90
2022-08-18T10:05:15.974Z,9.35
2022-08-18T10:08:07.125Z,9.75
2022-08-18T10:11:09.538Z,8.07
2022-08-18T10:14:08.149Z,8.98
2022-08-18T10:20:42.590Z,8.43
2022-08-18T10:23:10.528Z,15.73
2022-08-18T10:25:48.434Z,10.07
2022-08-18T10:28:58.621Z,8.15
2022-08-18T10:31:28.584Z,8.68
2022-08-18T10:37:01.347Z,8.40
2022-08-18T10:40:13.066Z,11.43
2022-08-18T10:43:26.949Z,7.90
2022-08-18T10:48:43.015Z,9.52
2022-08-18T10:51:59.206Z,6.78
2022-08-18T10:55:12.742Z,8.15
2022-08-18T10:57:55.081Z,8.25
2022-08-18T11:00:46.283Z,8.35
2022-08-18T11:03:51.441Z,8.20
2022-08-18T11:06:26.170Z,8.52
2022-08-18T11:11:42.025Z,7.50
2022-08-18T11:14:37.518Z,9.55
2022-08-18T11:17:16.450Z,7.28
2022-08-18T11:19:46.948Z,7.03
2022-08-18T11:22:35.541Z,8.82
2022-08-18T11:25:39.242Z,7.32
2022-08-18T11:28:18.546Z,7.47
2022-08-18T11:30:53.282Z,7.45
2022-08-18T11:33:24.547Z,8.43
2022-08-18T11:35:58.300Z,7.65
2022-08-18T11:41:32.717Z,6.90
2022-08-18T11:44:26.432Z,6.88
2022-08-18T11:47:19.461Z,9.27
2022-08-18T11:50:08.528Z,8.20
2022-08-18T11:52:53.780Z,5.45
2022-08-18T11:55:34.615Z,7.25
2022-08-18T11:58:10.379Z,6.10
2022-08-18T12:00:57.222Z,7.43
2022-08-18T12:03:41.864Z,8.43
2022-08-18T12:06:20.576Z,8.18
2022-08-18T12:09:19.991Z,6.85
2022-08-18T12:12:14.430Z,7.03
2022-08-18T12:15:09.160Z,6.07
2022-08-18T12:17:52.266Z,6.65
2022-08-18T12:20:20.990Z,5.78
2022-08-18T12:22:49.907Z,5.78
2022-08-18T12:25:24.775Z,4.80
2022-08-18T12:27:53.272Z,6.72
2022-08-18T12:30:20.555Z,6.20
2022-08-18T12:32:50.731Z,5.40
2022-08-18T12:35:24.371Z,8.73
2022-08-18T12:38:11.033Z,5.72
2022-08-18T12:40:41.088Z,5.75
2022-08-18T12:43:09.162Z,5.22
2022-08-18T12:45:38.165Z,5.88
2022-08-18T12:48:07.225Z,8.20
2022-08-18T12:50:43.152Z,6.20
2022-08-18T12:53:29.890Z,8.55
2022-08-18T12:56:24.851Z,9.60
2022-08-18T12:58:53.464Z,8.32
2022-08-18T13:04:12.694Z,7.47
2022-08-18T13:07:00.604Z,6.28
2022-08-18T13:09:52.972Z,6.72
2022-08-18T13:12:22.568Z,6.30
2022-08-18T13:14:51.684Z,6.75
2022-08-18T13:17:29.168Z,5.85
2022-08-18T13:20:02.371Z,6.88
2022-08-18T13:22:32.700Z,6.40
2022-08-18T13:25:03.839Z,7.88
2022-08-18T13:27:33.830Z,6.63
2022-08-18T13:30:16.778Z,7.20
2022-08-18T13:33:02.593Z,7.35
2022-08-18T13:35:38.505Z,10.55
2022-08-18T13:38:21.960Z,5.88
2022-08-18T13:40:57.703Z,7.85
2022-08-18T13:43:34.370Z,7.18
2022-08-18T13:46:02.963Z,9.98
2022-08-18T13:48:32.102Z,10.25
2022-08-18T13:51:01.761Z,7.55
2022-08-18T13:53:31.508Z,7.68
2022-08-18T13:55:59.671Z,8.15
2022-08-18T13:58:30.419Z,7.53
2022-08-18T14:01:45.280Z,10.07
2022-08-18T14:03:56.237Z,6.88
2022-08-18T14:06:24.204Z,6.00
2022-08-18T14:08:53.755Z,6.32
2022-08-18T14:11:33.075Z,7.90
2022-08-18T14:14:02.241Z,9.95
2022-08-18T14:16:29.659Z,5.60
2022-08-18T14:19:17.818Z,7.55
2022-08-18T14:22:11.180Z,7.63
2022-08-18T14:25:00.352Z,8.23
2022-08-18T14:27:36.584Z,9.70
2022-08-18T14:30:12.331Z,8.27
2022-08-18T14:32:49.220Z,6.45
2022-08-18T14:35:33.747Z,5.97
2022-08-18T14:40:32.238Z,10.05
2022-08-18T14:42:59.710Z,6.63
2022-08-18T14:45:34.021Z,9.95
2022-08-18T14:48:07.248Z,7.72
2022-08-18T14:50:40.226Z,6.85
2022-08-18T14:53:20.356Z,8.80
2022-08-18T14:55:53.192Z,8.02
2022-08-18T14:58:26.449Z,6.07
2022-08-18T15:00:58.195Z,9.75
2022-08-18T15:03:31.513Z,6.25
2022-08-18T15:06:04.459Z,8.88
2022-08-18T15:08:35.199Z,6.53
2022-08-18T15:11:04.005Z,8.52
2022-08-18T15:13:32.249Z,11.20
2022-08-18T15:16:01.909Z,9.55
2022-08-18T15:18:29.967Z,10.57
2022-08-18T15:21:35.013Z,7.93
2022-08-18T15:24:24.269Z,8.07
2022-08-18T15:29:22.591Z,5.82
2022-08-18T15:31:59.724Z,6.13
2022-08-18T15:34:30.719Z,7.50
2022-08-18T15:36:58.268Z,9.73
2022-08-18T15:39:37.244Z,9.32
2022-08-18T15:42:11.269Z,8.80
2022-08-18T15:44:38.981Z,9.02
2022-08-18T15:47:09.366Z,7.57
2022-08-18T15:49:36.776Z,5.82
2022-08-18T15:52:04.478Z,5.95
2022-08-18T15:54:31.742Z,8.68
2022-08-18T15:56:58.992Z,8.20
2022-08-18T15:59:39.748Z,8.05
2022-08-18T16:02:11.545Z,6.30
2022-08-18T16:04:41.328Z,6.55
2022-08-18T16:09:39.491Z,7.10
2022-08-18T16:12:09.929Z,7.22
2022-08-18T16:14:41.629Z,6.53
2022-08-18T16:17:18.328Z,9.05
2022-08-18T16:19:51.464Z,7.18
2022-08-18T16:22:18.767Z,6.97
2022-08-18T16:24:50.225Z,8.07
2022-08-18T16:29:49.614Z,5.90
2022-08-18T16:32:16.881Z,8.02
2022-08-18T16:34:44.183Z,8.82
2022-08-18T16:37:11.975Z,15.23
2022-08-18T16:39:39.394Z,11.32
2022-08-18T16:42:07.097Z,10.85
2022-08-18T16:44:35.289Z,7.72
2022-08-18T16:47:06.089Z,6.63
2022-08-18T16:49:33.653Z,9.05
2022-08-18T16:52:02.158Z,9.45
2022-08-18T16:54:30.317Z,7.32
2022-08-18T16:56:57.499Z,6.07
2022-08-18T16:59:43.527Z,5.93
2022-08-18T17:02:29.582Z,7.10
2022-08-18T17:05:02.300Z,8.98
2022-08-18T17:07:32.474Z,7.57
2022-08-18T17:09:59.816Z,7.13
2022-08-18T17:12:29.510Z,7.40
2022-08-18T17:14:56.765Z,9.65
2022-08-18T17:17:25.613Z,14.18
2022-08-18T17:19:53.923Z,8.70
2022-08-18T17:22:21.204Z,7.82
2022-08-18T17:24:49.706Z,9.55
2022-08-18T17:27:27.541Z,7.40
2022-08-18T17:30:13.948Z,8.02
2022-08-18T17:33:04.753Z,9.15
2022-08-18T17:35:45.589Z,9.43
2022-08-18T17:38:21.822Z,9.73
2022-08-18T17:40:56.706Z,7.55
2022-08-18T17:43:31.263Z,7.95
2022-08-18T17:46:27.279Z,9.80
2022-08-18T17:49:04.924Z,7.95
2022-08-18T17:51:42.510Z,9.48
2022-08-18T17:54:37.009Z,7.30
2022-08-18T17:57:15.062Z,7.78
2022-08-18T17:59:52.104Z,7.65
2022-08-18T18:02:30.035Z,8.93
2022-08-18T18:05:06.268Z,7.85
2022-08-18T18:07:43.550Z,7.47
2022-08-18T18:10:15.587Z,10.65
2022-08-18T18:12:43.764Z,8.68
2022-08-18T18:15:13.816Z,10.75
2022-08-18T18:17:43.841Z,10.50
2022-08-18T18:20:32.835Z,8.68
2022-08-18T18:23:19.752Z,7.28
2022-08-18T18:25:48.115Z,12.32
2022-08-18T18:28:30.751Z,11.05
2022-08-18T18:31:17.539Z,10.57
2022-08-18T18:33:45.935Z,8.27
2022-08-18T18:36:13.329Z,10.75
2022-08-18T18:38:46.532Z,7.55
2022-08-18T18:41:13.704Z,8.07
2022-08-18T18:43:44.730Z,8.15
2022-08-18T18:46:32.264Z,11.00
2022-08-18T18:49:25.017Z,7.72
2022-08-18T18:52:17.596Z,9.63
2022-08-18T18:55:01.710Z,9.95
2022-08-18T18:58:07.022Z,9.63
2022-08-18T19:00:54.311Z,9.77
2022-08-18T19:03:52.495Z,9.32
2022-08-18T19:07:10.577Z,11.18
2022-08-18T19:10:26.140Z,8.40
2022-08-18T19:13:32.396Z,10.32
2022-08-18T19:16:29.152Z,9.80
2022-08-18T19:19:37.325Z,12.70
2022-08-18T19:22:27.913Z,10.27
2022-08-18T19:25:15.032Z,9.38
2022-08-18T19:27:54.532Z,11.65
2022-08-18T19:30:23.697Z,8.68
2022-08-18T19:33:04.496Z,32.70
2022-08-18T19:35:59.112Z,12.10
2022-08-18T19:38:50.306Z,10.98
2022-08-18T19:48:03.110Z,12.13
2022-08-18T19:51:04.604Z,9.27
2022-08-18T19:54:01.861Z,9.35
2022-08-18T20:00:37.585Z,10.95
2022-08-18T20:03:29.893Z,11.20
2022-08-18T20:06:47.713Z,11.18
2022-08-18T20:12:48.821Z,13.98
2022-08-18T20:18:02.421Z,9.95
2022-08-18T20:23:36.030Z,10.10
2022-08-18T20:26:04.253Z,10.25
2022-08-18T20:29:13.823Z,10.15
2022-08-18T20:31:50.493Z,11.23
2022-08-18T20:34:32.389Z,11.00
2022-08-18T20:37:10.374Z,9.48
2022-08-18T20:39:56.646Z,10.27
2022-08-18T20:42:24.540Z,9.63
2022-08-18T20:45:23.538Z,10.05
2022-08-18T20:48:07.082Z,9.65
2022-08-18T20:50:59.037Z,12.57
2022-08-18T20:53:55.028Z,11.38
2022-08-18T20:56:43.756Z,10.98
2022-08-18T20:59:30.719Z,9.73
2022-08-18T21:02:24.239Z,12.50
2022-08-18T21:04:57.177Z,10.20
2022-08-18T21:07:37.138Z,12.93
2022-08-18T21:10:19.604Z,9.25
2022-08-18T21:12:54.643Z,9.75
2022-08-18T21:15:27.399Z,11.13
2022-08-18T21:18:04.364Z,12.23
2022-08-18T21:20:32.559Z,9.73
2022-08-18T21:23:12.398Z,13.77
2022-08-18T21:25:54.305Z,13.00
2022-08-18T21:28:23.367Z,10.45
2022-08-18T21:31:43.040Z,11.32
2022-08-18T21:34:40.687Z,9.82
2022-08-18T21:37:15.289Z,14.38
2022-08-18T21:39:54.538Z,8.65
2022-08-18T21:42:44.879Z,12.68
2022-08-18T21:45:20.154Z,9.40
2022-08-18T21:47:58.478Z,9.55
2022-08-18T21:50:30.733Z,10.73
2022-08-18T21:53:02.284Z,12.68
2022-08-18T21:55:51.549Z,10.23
2022-08-18T21:58:45.426Z,10.52
2022-08-18T22:01:28.411Z,15.95
2022-08-18T22:03:59.686Z,10.48
2022-08-18T22:06:51.086Z,9.98
2022-08-18T22:09:50.742Z,9.90
2022-08-18T22:12:42.623Z,9.65
2022-08-18T22:15:18.450Z,9.43
2022-08-18T22:18:05.473Z,10.25
2022-08-18T22:20:54.238Z,14.50
2022-08-18T22:23:46.295Z,9.93
2022-08-18T22:26:37.255Z,9.68
2022-08-18T22:29:26.807Z,11.80
2022-08-18T22:31:55.320Z,11.25
2022-08-18T22:34:29.132Z,10.40
2022-08-18T22:37:19.405Z,9.93
2022-08-18T22:39:52.572Z,8.60
2022-08-18T22:42:27.685Z,10.82
2022-08-18T22:44:58.066Z,10.50
2022-08-18T22:49:57.413Z,10.38
2022-08-18T22:52:38.504Z,10.30
2022-08-18T22:55:10.629Z,11.68
2022-08-18T22:57:39.764Z,10.57
2022-08-18T23:00:16.132Z,14.93
2022-08-18T23:02:44.266Z,12.65
2022-08-18T23:05:12.391Z,14.50
2022-08-18T23:07:39.996Z,12.77
2022-08-18T23:10:13.801Z,14.52
2022-08-18T23:12:43.619Z,12.60
2022-08-18T23:15:13.840Z,13.10
2022-08-18T23:17:43.531Z,14.48
2022-08-18T23:20:17.933Z,11.95
2022-08-18T23:22:48.263Z,13.13
2022-08-18T23:25:16.229Z,15.15
2022-08-18T23:27:43.728Z,15.00
2022-08-18T23:30:12.716Z,16.80
2022-08-18T23:32:40.019Z,15.02
2022-08-18T23:35:08.044Z,17.75
2022-08-18T23:37:39.574Z,16.00
2022-08-18T23:40:11.381Z,15.30
2022-08-18T23:42:38.673Z,16.20
2022-08-18T23:45:06.615Z,17.45
2022-08-18T23:47:33.903Z,16.38
2022-08-18T23:50:01.984Z,16.83
2022-08-18T23:52:29.209Z,16.35
2022-08-18T23:54:56.704Z,14.02
2022-08-18T23:57:23.943Z,13.85
2022-08-18T23:59:51.228Z,14.18
